sensor_id;sensor_type;location;lat;lon;timestamp;pressure;altitude;pressure_sealevel;temperature;humidity
56400;BME280;42298;53.638;9.876;2023-06-26T00:00:44;101195.47;;;25.09;59.90
56400;BME280;42298;53.638;9.876;2023-06-26T00:03:09;101196.69;;;25.08;60.04
56400;BME280;42298;53.638;9.876;2023-06-26T00:05:41;101195.84;;;25.04;60.01
56400;BME280;42298;53.638;9.876;2023-06-26T00:08:07;101195.84;;;25.01;59.95
56400;BME280;42298;53.638;9.876;2023-06-26T00:10:32;101182.97;;;24.96;60.25
56400;BME280;42298;53.638;9.876;2023-06-26T00:12:57;101189.81;;;24.99;60.39
56400;BME280;42298;53.638;9.876;2023-06-26T00:15:22;101186.53;;;24.90;60.34
56400;BME280;42298;53.638;9.876;2023-06-26T00:17:48;101186.50;;;24.86;60.63
56400;BME280;42298;53.638;9.876;2023-06-26T00:20:13;101182.84;;;24.79;60.44
56400;BME280;42298;53.638;9.876;2023-06-26T00:22:40;101180.47;;;24.81;60.73
56400;BME280;42298;53.638;9.876;2023-06-26T00:25:08;101182.47;;;24.80;60.91
56400;BME280;42298;53.638;9.876;2023-06-26T00:27:33;101178.81;;;24.73;61.14
56400;BME280;42298;53.638;9.876;2023-06-26T00:29:59;101174.81;;;24.74;61.01
56400;BME280;42298;53.638;9.876;2023-06-26T00:32:25;101167.53;;;24.73;61.01
56400;BME280;42298;53.638;9.876;2023-06-26T00:34:50;101178.00;;;24.72;60.92
56400;BME280;42298;53.638;9.876;2023-06-26T00:37:18;101174.78;;;24.70;60.94
56400;BME280;42298;53.638;9.876;2023-06-26T00:39:43;101165.50;;;24.66;61.13
56400;BME280;42298;53.638;9.876;2023-06-26T00:42:08;101164.25;;;24.64;61.10
56400;BME280;42298;53.638;9.876;2023-06-26T00:44:34;101165.91;;;24.65;61.15
56400;BME280;42298;53.638;9.876;2023-06-26T00:46:59;101158.63;;;24.64;61.49
56400;BME280;42298;53.638;9.876;2023-06-26T00:49:26;101159.81;;;24.59;61.67
56400;BME280;42298;53.638;9.876;2023-06-26T00:51:51;101157.78;;;24.56;61.65
56400;BME280;42298;53.638;9.876;2023-06-26T00:54:17;101155.38;;;24.55;61.79
56400;BME280;42298;53.638;9.876;2023-06-26T00:56:46;101155.72;;;24.50;61.90
56400;BME280;42298;53.638;9.876;2023-06-26T00:59:12;101150.06;;;24.43;61.98
56400;BME280;42298;53.638;9.876;2023-06-26T01:01:37;101148.84;;;24.44;61.95
56400;BME280;42298;53.638;9.876;2023-06-26T01:04:02;101152.88;;;24.43;61.77
56400;BME280;42298;53.638;9.876;2023-06-26T01:06:30;101145.63;;;24.42;61.83
56400;BME280;42298;53.638;9.876;2023-06-26T01:08:58;101137.56;;;24.40;61.83
56400;BME280;42298;53.638;9.876;2023-06-26T01:11:24;101136.78;;;24.40;61.76
56400;BME280;42298;53.638;9.876;2023-06-26T01:13:50;101145.22;;;24.40;62.01
56400;BME280;42298;53.638;9.876;2023-06-26T01:16:19;101134.31;;;24.34;61.97
56400;BME280;42298;53.638;9.876;2023-06-26T01:18:45;101137.91;;;24.31;62.16
56400;BME280;42298;53.638;9.876;2023-06-26T01:21:14;101134.28;;;24.27;62.30
56400;BME280;42298;53.638;9.876;2023-06-26T01:23:54;101133.50;;;24.30;62.39
56400;BME280;42298;53.638;9.876;2023-06-26T01:26:23;101127.81;;;24.23;62.55
56400;BME280;42298;53.638;9.876;2023-06-26T01:28:52;101128.19;;;24.18;62.91
56400;BME280;42298;53.638;9.876;2023-06-26T01:31:19;101115.69;;;24.12;62.69
56400;BME280;42298;53.638;9.876;2023-06-26T01:33:45;101116.88;;;24.11;63.00
56400;BME280;42298;53.638;9.876;2023-06-26T01:36:11;101114.41;;;24.03;62.76
56400;BME280;42298;53.638;9.876;2023-06-26T01:38:37;101114.78;;;24.01;63.25
56400;BME280;42298;53.638;9.876;2023-06-26T01:41:03;101109.94;;;23.98;62.93
56400;BME280;42298;53.638;9.876;2023-06-26T01:46:29;101112.72;;;23.95;63.09
56400;BME280;42298;53.638;9.876;2023-06-26T01:49:21;101106.72;;;23.96;63.12
56400;BME280;42298;53.638;9.876;2023-06-26T01:52:40;101096.59;;;23.92;63.21
56400;BME280;42298;53.638;9.876;2023-06-26T01:54:57;101102.28;;;23.95;63.17
56400;BME280;42298;53.638;9.876;2023-06-26T01:57:26;101088.16;;;23.88;62.93
56400;BME280;42298;53.638;9.876;2023-06-26T01:59:54;101098.59;;;23.88;63.25
56400;BME280;42298;53.638;9.876;2023-06-26T02:02:20;101095.34;;;23.86;63.35
56400;BME280;42298;53.638;9.876;2023-06-26T02:04:45;101090.06;;;23.77;63.24
56400;BME280;42298;53.638;9.876;2023-06-26T02:07:13;101088.91;;;23.82;63.56
56400;BME280;42298;53.638;9.876;2023-06-26T02:09:38;101090.06;;;23.77;63.73
56400;BME280;42298;53.638;9.876;2023-06-26T02:12:04;101083.63;;;23.73;63.92
56400;BME280;42298;53.638;9.876;2023-06-26T02:14:29;101073.53;;;23.72;64.00
56400;BME280;42298;53.638;9.876;2023-06-26T02:16:55;101076.78;;;23.74;64.11
56400;BME280;42298;53.638;9.876;2023-06-26T02:19:20;101076.78;;;23.74;64.11
56400;BME280;42298;53.638;9.876;2023-06-26T02:21:48;101055.00;;;23.61;64.22
56400;BME280;42298;53.638;9.876;2023-06-26T02:24:15;101071.13;;;23.67;64.32
56400;BME280;42298;53.638;9.876;2023-06-26T02:26:40;101068.66;;;23.62;64.34
56400;BME280;42298;53.638;9.876;2023-06-26T02:29:06;101071.84;;;23.61;64.40
56400;BME280;42298;53.638;9.876;2023-06-26T02:31:31;101058.97;;;23.56;64.33
56400;BME280;42298;53.638;9.876;2023-06-26T02:33:57;101069.44;;;23.59;64.48
56400;BME280;42298;53.638;9.876;2023-06-26T02:36:22;101058.19;;;23.56;64.80
56400;BME280;42298;53.638;9.876;2023-06-26T02:38:48;101060.94;;;23.52;64.75
56400;BME280;42298;53.638;9.876;2023-06-26T02:41:13;101052.50;;;23.52;64.45
56400;BME280;42298;53.638;9.876;2023-06-26T02:43:41;101054.13;;;23.53;64.59
56400;BME280;42298;53.638;9.876;2023-06-26T02:46:07;101059.75;;;23.53;64.56
56400;BME280;42298;53.638;9.876;2023-06-26T02:48:32;101036.78;;;23.41;64.54
56400;BME280;42298;53.638;9.876;2023-06-26T02:50:57;101053.72;;;23.51;64.70
56400;BME280;42298;53.638;9.876;2023-06-26T02:53:22;101044.44;;;23.47;64.70
56400;BME280;42298;53.638;9.876;2023-06-26T02:55:48;101045.25;;;23.48;64.89
56400;BME280;42298;53.638;9.876;2023-06-26T02:58:13;101043.66;;;23.47;64.71
56400;BME280;42298;53.638;9.876;2023-06-26T03:00:39;101035.16;;;23.43;64.90
56400;BME280;42298;53.638;9.876;2023-06-26T03:03:06;101037.16;;;23.43;64.74
56400;BME280;42298;53.638;9.876;2023-06-26T03:05:32;101032.31;;;23.36;64.51
56400;BME280;42298;53.638;9.876;2023-06-26T03:07:57;101048.34;;;23.36;64.90
56400;BME280;42298;53.638;9.876;2023-06-26T03:10:24;101039.50;;;23.34;64.75
56400;BME280;42298;53.638;9.876;2023-06-26T03:12:49;101031.06;;;23.34;65.09
56400;BME280;42298;53.638;9.876;2023-06-26T03:15:14;101023.03;;;23.32;64.89
56400;BME280;42298;53.638;9.876;2023-06-26T03:17:40;101025.91;;;23.43;65.06
56400;BME280;42298;53.638;9.876;2023-06-26T03:20:06;101027.56;;;23.44;64.87
56400;BME280;42298;53.638;9.876;2023-06-26T03:22:32;101031.59;;;23.46;64.83
56400;BME280;42298;53.638;9.876;2023-06-26T03:24:58;101024.44;;;23.56;64.50
56400;BME280;42298;53.638;9.876;2023-06-26T03:27:23;101025.72;;;23.69;64.27
56400;BME280;42298;53.638;9.876;2023-06-26T03:29:48;101032.66;;;23.85;63.73
56400;BME280;42298;53.638;9.876;2023-06-26T03:32:15;101037.50;;;23.88;63.63
56400;BME280;42298;53.638;9.876;2023-06-26T03:34:40;101022.31;;;23.96;63.22
56400;BME280;42298;53.638;9.876;2023-06-26T03:37:06;101021.94;;;24.01;63.32
56400;BME280;42298;53.638;9.876;2023-06-26T03:39:31;101027.56;;;24.01;62.92
56400;BME280;42298;53.638;9.876;2023-06-26T03:41:56;101022.34;;;24.03;62.47
56400;BME280;42298;53.638;9.876;2023-06-26T03:44:25;101024.75;;;24.01;62.90
56400;BME280;42298;53.638;9.876;2023-06-26T03:46:51;101011.56;;;24.12;62.74
56400;BME280;42298;53.638;9.876;2023-06-26T03:49:16;101012.84;;;24.32;62.32
56400;BME280;42298;53.638;9.876;2023-06-26T03:51:42;101014.50;;;24.44;62.09
56400;BME280;42298;53.638;9.876;2023-06-26T03:54:07;101009.28;;;24.43;61.75
56400;BME280;42298;53.638;9.876;2023-06-26T03:56:33;101005.22;;;24.40;61.61
56400;BME280;42298;53.638;9.876;2023-06-26T03:58:58;100994.38;;;24.42;61.59
56400;BME280;42298;53.638;9.876;2023-06-26T04:01:23;101003.63;;;24.43;61.42
56400;BME280;42298;53.638;9.876;2023-06-26T04:03:49;100998.41;;;24.45;61.74
56400;BME280;42298;53.638;9.876;2023-06-26T04:06:14;100996.41;;;24.49;60.96
56400;BME280;42298;53.638;9.876;2023-06-26T04:08:40;100989.97;;;24.48;61.20
56400;BME280;42298;53.638;9.876;2023-06-26T04:11:06;100994.84;;;24.55;61.10
56400;BME280;42298;53.638;9.876;2023-06-26T04:13:31;100993.63;;;24.59;60.93
56400;BME280;42298;53.638;9.876;2023-06-26T04:15:56;100993.28;;;24.68;60.50
56400;BME280;42298;53.638;9.876;2023-06-26T04:18:22;100980.81;;;24.86;60.40
56400;BME280;42298;53.638;9.876;2023-06-26T04:21:07;100986.91;;;25.41;59.47
56400;BME280;42298;53.638;9.876;2023-06-26T04:23:33;100977.13;;;25.91;58.56
56400;BME280;42298;53.638;9.876;2023-06-26T04:25:58;100974.94;;;26.44;56.54
56400;BME280;42298;53.638;9.876;2023-06-26T04:28:24;100973.41;;;26.94;54.84
56400;BME280;42298;53.638;9.876;2023-06-26T04:30:53;100976.00;;;27.33;53.66
56400;BME280;42298;53.638;9.876;2023-06-26T04:33:18;100975.97;;;27.73;53.06
56400;BME280;42298;53.638;9.876;2023-06-26T04:35:44;100973.34;;;28.27;51.53
56400;BME280;42298;53.638;9.876;2023-06-26T04:38:14;100974.41;;;28.70;50.33
56400;BME280;42298;53.638;9.876;2023-06-26T04:40:39;100963.25;;;29.12;49.42
56400;BME280;42298;53.638;9.876;2023-06-26T04:43:04;100966.75;;;29.43;48.49
56400;BME280;42298;53.638;9.876;2023-06-26T04:45:30;100964.78;;;29.63;47.21
56400;BME280;42298;53.638;9.876;2023-06-26T04:47:58;100966.47;;;30.00;46.58
56400;BME280;42298;53.638;9.876;2023-06-26T04:50:25;100976.66;;;30.40;44.71
56400;BME280;42298;53.638;9.876;2023-06-26T04:52:50;100959.25;;;30.54;45.57
56400;BME280;42298;53.638;9.876;2023-06-26T04:55:15;100960.47;;;30.72;44.39
56400;BME280;42298;53.638;9.876;2023-06-26T04:57:41;100963.16;;;30.79;43.71
56400;BME280;42298;53.638;9.876;2023-06-26T05:00:06;100965.44;;;31.04;43.68
56400;BME280;42298;53.638;9.876;2023-06-26T05:02:37;100956.78;;;31.23;43.11
56400;BME280;42298;53.638;9.876;2023-06-26T05:05:03;100956.63;;;31.30;42.02
56400;BME280;42298;53.638;9.876;2023-06-26T05:07:29;100956.44;;;31.21;42.11
56400;BME280;42298;53.638;9.876;2023-06-26T05:09:54;100954.41;;;31.38;41.92
56400;BME280;42298;53.638;9.876;2023-06-26T05:12:20;100945.41;;;31.40;41.48
56400;BME280;42298;53.638;9.876;2023-06-26T05:14:45;100954.50;;;31.51;41.18
56400;BME280;42298;53.638;9.876;2023-06-26T05:17:13;100947.78;;;31.73;41.31
56400;BME280;42298;53.638;9.876;2023-06-26T05:19:38;100944.09;;;31.73;40.61
56400;BME280;42298;53.638;9.876;2023-06-26T05:22:04;100938.56;;;32.10;41.00
56400;BME280;42298;53.638;9.876;2023-06-26T05:24:33;100941.88;;;32.21;40.05
56400;BME280;42298;53.638;9.876;2023-06-26T05:27:00;100938.25;;;32.21;39.29
56400;BME280;42298;53.638;9.876;2023-06-26T05:29:27;100927.94;;;32.11;39.63
56400;BME280;42298;53.638;9.876;2023-06-26T05:31:53;100927.34;;;31.91;39.95
56400;BME280;42298;53.638;9.876;2023-06-26T05:34:22;100936.25;;;31.77;39.86
56400;BME280;42298;53.638;9.876;2023-06-26T05:36:50;100914.09;;;31.84;40.35
56400;BME280;42298;53.638;9.876;2023-06-26T05:39:16;100921.06;;;31.96;40.25
56400;BME280;42298;53.638;9.876;2023-06-26T05:41:43;100918.44;;;32.30;39.82
56400;BME280;42298;53.638;9.876;2023-06-26T05:44:09;100915.06;;;32.72;39.14
56400;BME280;42298;53.638;9.876;2023-06-26T05:46:34;100914.50;;;32.77;38.52
56400;BME280;42298;53.638;9.876;2023-06-26T05:48:59;100923.16;;;32.49;38.61
56400;BME280;42298;53.638;9.876;2023-06-26T05:51:27;100911.41;;;32.59;38.48
56400;BME280;42298;53.638;9.876;2023-06-26T05:53:52;100922.25;;;32.77;38.98
56400;BME280;42298;53.638;9.876;2023-06-26T05:56:18;100896.81;;;32.70;38.93
56400;BME280;42298;53.638;9.876;2023-06-26T05:58:44;100907.72;;;32.34;38.74
56400;BME280;42298;53.638;9.876;2023-06-26T06:01:09;100900.69;;;32.38;39.22
56400;BME280;42298;53.638;9.876;2023-06-26T06:03:34;100896.09;;;32.41;38.59
56400;BME280;42298;53.638;9.876;2023-06-26T06:06:00;100911.28;;;32.75;38.40
56400;BME280;42298;53.638;9.876;2023-06-26T06:08:25;100895.44;;;32.62;38.65
56400;BME280;42298;53.638;9.876;2023-06-26T06:10:50;100894.50;;;32.77;37.59
56400;BME280;42298;53.638;9.876;2023-06-26T06:13:15;100897.13;;;32.47;38.56
56400;BME280;42298;53.638;9.876;2023-06-26T06:15:41;100887.56;;;32.41;38.50
56400;BME280;42298;53.638;9.876;2023-06-26T06:18:06;100889.78;;;32.33;38.90
56400;BME280;42298;53.638;9.876;2023-06-26T06:20:32;100905.13;;;32.39;38.81
56400;BME280;42298;53.638;9.876;2023-06-26T06:22:57;100885.72;;;32.84;38.29
56400;BME280;42298;53.638;9.876;2023-06-26T06:25:22;100881.50;;;33.48;37.63
56400;BME280;42298;53.638;9.876;2023-06-26T06:27:47;100862.81;;;33.56;37.00
56400;BME280;42298;53.638;9.876;2023-06-26T06:30:14;100878.13;;;33.62;36.85
56400;BME280;42298;53.638;9.876;2023-06-26T06:32:39;100872.81;;;33.73;36.30
56400;BME280;42298;53.638;9.876;2023-06-26T06:35:05;100868.91;;;33.80;37.27
56400;BME280;42298;53.638;9.876;2023-06-26T06:37:36;100862.91;;;33.65;36.70
56400;BME280;42298;53.638;9.876;2023-06-26T06:40:02;100851.66;;;33.49;36.98
56400;BME280;42298;53.638;9.876;2023-06-26T06:42:28;100851.09;;;33.54;36.99
56400;BME280;42298;53.638;9.876;2023-06-26T06:44:54;100861.91;;;34.02;36.73
56400;BME280;42298;53.638;9.876;2023-06-26T06:47:19;100854.88;;;34.25;36.53
56400;BME280;42298;53.638;9.876;2023-06-26T06:49:45;100842.50;;;33.76;36.55
56400;BME280;42298;53.638;9.876;2023-06-26T06:52:10;100834.00;;;33.63;36.98
56400;BME280;42298;53.638;9.876;2023-06-26T06:54:54;100841.25;;;33.77;36.55
56400;BME280;42298;53.638;9.876;2023-06-26T06:57:21;100826.81;;;33.80;36.70
56400;BME280;42298;53.638;9.876;2023-06-26T06:59:46;100848.75;;;33.83;36.91
56400;BME280;42298;53.638;9.876;2023-06-26T07:02:17;100844.50;;;33.66;37.10
56400;BME280;42298;53.638;9.876;2023-06-26T07:04:42;100838.13;;;33.62;36.78
56400;BME280;42298;53.638;9.876;2023-06-26T07:07:07;100836.38;;;33.86;35.89
56400;BME280;42298;53.638;9.876;2023-06-26T07:09:33;100841.38;;;34.25;35.91
56400;BME280;42298;53.638;9.876;2023-06-26T07:11:59;100847.44;;;34.27;35.89
56400;BME280;42298;53.638;9.876;2023-06-26T07:14:25;100839.50;;;34.31;35.32
56400;BME280;42298;53.638;9.876;2023-06-26T07:16:50;100848.50;;;34.42;35.23
56400;BME280;42298;53.638;9.876;2023-06-26T07:19:15;100841.94;;;34.72;34.88
56400;BME280;42298;53.638;9.876;2023-06-26T07:21:41;100831.44;;;34.69;34.29
56400;BME280;42298;53.638;9.876;2023-06-26T07:24:07;100834.31;;;34.78;35.18
56400;BME280;42298;53.638;9.876;2023-06-26T07:26:32;100841.34;;;34.87;35.48
56400;BME280;42298;53.638;9.876;2023-06-26T07:28:58;100831.34;;;35.09;35.26
56400;BME280;42298;53.638;9.876;2023-06-26T07:31:23;100843.66;;;35.46;35.05
56400;BME280;42298;53.638;9.876;2023-06-26T07:33:48;100843.19;;;35.56;33.87
56400;BME280;42298;53.638;9.876;2023-06-26T07:36:14;100840.41;;;36.07;34.19
56400;BME280;42298;53.638;9.876;2023-06-26T07:38:39;100853.75;;;36.61;32.77
56400;BME280;42298;53.638;9.876;2023-06-26T07:41:04;100847.69;;;36.59;32.22
56400;BME280;42298;53.638;9.876;2023-06-26T07:43:30;100843.84;;;36.29;33.37
56400;BME280;42298;53.638;9.876;2023-06-26T07:45:56;100832.50;;;36.25;32.98
56400;BME280;42298;53.638;9.876;2023-06-26T07:48:23;100848.44;;;35.85;33.83
56400;BME280;42298;53.638;9.876;2023-06-26T07:50:49;100836.63;;;35.83;33.78
56400;BME280;42298;53.638;9.876;2023-06-26T07:53:14;100840.94;;;35.87;32.66
56400;BME280;42298;53.638;9.876;2023-06-26T07:55:39;100834.13;;;35.40;33.50
56400;BME280;42298;53.638;9.876;2023-06-26T07:58:05;100832.47;;;35.30;33.32
56400;BME280;42298;53.638;9.876;2023-06-26T08:00:30;100833.00;;;34.70;32.88
56400;BME280;42298;53.638;9.876;2023-06-26T08:02:55;100821.31;;;34.38;34.22
56400;BME280;42298;53.638;9.876;2023-06-26T08:05:21;100816.25;;;34.20;33.89
56400;BME280;42298;53.638;9.876;2023-06-26T08:07:46;100809.28;;;33.91;34.46
56400;BME280;42298;53.638;9.876;2023-06-26T08:10:11;100804.75;;;33.81;34.67
56400;BME280;42298;53.638;9.876;2023-06-26T08:12:37;100819.50;;;33.79;35.75
56400;BME280;42298;53.638;9.876;2023-06-26T08:15:05;100796.09;;;34.24;35.21
56400;BME280;42298;53.638;9.876;2023-06-26T08:17:31;100793.09;;;34.76;34.06
56400;BME280;42298;53.638;9.876;2023-06-26T08:19:56;100785.91;;;34.62;33.21
56400;BME280;42298;53.638;9.876;2023-06-26T08:22:22;100777.84;;;34.79;33.31
56400;BME280;42298;53.638;9.876;2023-06-26T08:24:47;100795.22;;;34.85;32.63
56400;BME280;42298;53.638;9.876;2023-06-26T08:27:12;100791.41;;;35.15;33.26
56400;BME280;42298;53.638;9.876;2023-06-26T08:29:38;100803.22;;;35.44;32.41
56400;BME280;42298;53.638;9.876;2023-06-26T08:32:03;100811.00;;;35.43;32.55
56400;BME280;42298;53.638;9.876;2023-06-26T08:34:29;100814.84;;;35.40;32.26
56400;BME280;42298;53.638;9.876;2023-06-26T08:36:54;100807.16;;;35.19;33.50
56400;BME280;42298;53.638;9.876;2023-06-26T08:39:19;100818.88;;;34.85;33.29
56400;BME280;42298;53.638;9.876;2023-06-26T08:41:45;100819.00;;;34.63;34.00
56400;BME280;42298;53.638;9.876;2023-06-26T08:44:10;100843.38;;;34.37;35.05
56400;BME280;42298;53.638;9.876;2023-06-26T08:46:36;100853.38;;;34.11;35.47
56400;BME280;42298;53.638;9.876;2023-06-26T08:49:14;100858.06;;;33.96;36.60
56400;BME280;42298;53.638;9.876;2023-06-26T08:51:46;100849.69;;;34.02;37.01
56400;BME280;42298;53.638;9.876;2023-06-26T08:54:17;100863.84;;;34.36;35.82
56400;BME280;42298;53.638;9.876;2023-06-26T08:56:47;100868.72;;;34.57;35.81
56400;BME280;42298;53.638;9.876;2023-06-26T08:59:14;100860.34;;;34.71;36.80
56400;BME280;42298;53.638;9.876;2023-06-26T09:01:40;100857.47;;;34.71;36.50
56400;BME280;42298;53.638;9.876;2023-06-26T09:04:06;100866.06;;;34.71;36.40
56400;BME280;42298;53.638;9.876;2023-06-26T09:06:34;100872.75;;;34.68;36.49
56400;BME280;42298;53.638;9.876;2023-06-26T09:09:00;100851.41;;;34.51;36.38
56400;BME280;42298;53.638;9.876;2023-06-26T09:11:25;100852.63;;;34.50;36.85
56400;BME280;42298;53.638;9.876;2023-06-26T09:13:51;100876.13;;;34.36;36.90
56400;BME280;42298;53.638;9.876;2023-06-26T09:16:17;100872.00;;;34.16;37.74
56400;BME280;42298;53.638;9.876;2023-06-26T09:18:42;100871.47;;;34.08;37.36
56400;BME280;42298;53.638;9.876;2023-06-26T09:21:08;100904.31;;;33.82;37.85
56400;BME280;42298;53.638;9.876;2023-06-26T09:23:34;100901.25;;;33.55;38.50
56400;BME280;42298;53.638;9.876;2023-06-26T09:26:05;100905.00;;;33.05;39.38
56400;BME280;42298;53.638;9.876;2023-06-26T09:28:32;100913.44;;;32.59;39.87
56400;BME280;42298;53.638;9.876;2023-06-26T09:31:05;100932.19;;;32.19;40.84
56400;BME280;42298;53.638;9.876;2023-06-26T09:33:34;100935.47;;;31.76;41.95
56400;BME280;42298;53.638;9.876;2023-06-26T09:36:07;100948.41;;;31.16;43.37
56400;BME280;42298;53.638;9.876;2023-06-26T09:38:35;100941.47;;;30.85;44.28
56400;BME280;42298;53.638;9.876;2023-06-26T09:41:02;100940.97;;;30.55;44.81
56400;BME280;42298;53.638;9.876;2023-06-26T09:43:28;100963.31;;;30.37;45.36
56400;BME280;42298;53.638;9.876;2023-06-26T09:45:57;100962.75;;;30.26;45.91
56400;BME280;42298;53.638;9.876;2023-06-26T09:48:24;100950.09;;;30.07;46.36
56400;BME280;42298;53.638;9.876;2023-06-26T09:50:50;100963.28;;;29.78;46.84
56400;BME280;42298;53.638;9.876;2023-06-26T09:53:16;100967.47;;;29.70;46.95
56400;BME280;42298;53.638;9.876;2023-06-26T09:55:43;100972.91;;;29.61;47.14
56400;BME280;42298;53.638;9.876;2023-06-26T09:58:12;100979.09;;;29.33;48.21
56400;BME280;42298;53.638;9.876;2023-06-26T10:00:43;100975.00;;;29.11;48.42
56400;BME280;42298;53.638;9.876;2023-06-26T10:03:10;100973.97;;;28.98;49.87
56400;BME280;42298;53.638;9.876;2023-06-26T10:05:35;100980.88;;;28.70;52.90
56400;BME280;42298;53.638;9.876;2023-06-26T10:08:01;100975.44;;;28.23;55.59
56400;BME280;42298;53.638;9.876;2023-06-26T10:10:27;100991.25;;;27.79;57.04
56400;BME280;42298;53.638;9.876;2023-06-26T10:12:59;101000.19;;;27.37;59.53
56400;BME280;42298;53.638;9.876;2023-06-26T10:15:27;101014.16;;;27.04;60.50
56400;BME280;42298;53.638;9.876;2023-06-26T10:17:55;101017.25;;;26.65;62.96
56400;BME280;42298;53.638;9.876;2023-06-26T10:20:21;101030.19;;;26.49;63.41
56400;BME280;42298;53.638;9.876;2023-06-26T10:22:47;101034.34;;;26.20;65.59
56400;BME280;42298;53.638;9.876;2023-06-26T10:25:18;101039.63;;;25.93;65.65
56400;BME280;42298;53.638;9.876;2023-06-26T10:28:00;101034.84;;;25.62;67.11
56400;BME280;42298;53.638;9.876;2023-06-26T10:30:30;101045.69;;;25.28;67.86
56400;BME280;42298;53.638;9.876;2023-06-26T10:32:56;101046.09;;;25.13;68.30
56400;BME280;42298;53.638;9.876;2023-06-26T10:35:24;101049.28;;;25.04;69.12
56400;BME280;42298;53.638;9.876;2023-06-26T10:37:50;101049.31;;;25.01;69.67
56400;BME280;42298;53.638;9.876;2023-06-26T10:40:27;101054.09;;;24.90;70.20
56400;BME280;42298;53.638;9.876;2023-06-26T10:43:06;101052.09;;;24.94;71.17
56400;BME280;42298;53.638;9.876;2023-06-26T10:45:33;101050.09;;;24.94;70.60
56400;BME280;42298;53.638;9.876;2023-06-26T10:47:58;101048.09;;;25.05;70.98
56400;BME280;42298;53.638;9.876;2023-06-26T10:50:31;101055.81;;;25.36;71.36
56400;BME280;42298;53.638;9.876;2023-06-26T10:55:57;101057.00;;;25.77;69.69
56400;BME280;42298;53.638;9.876;2023-06-26T10:58:27;101044.88;;;25.91;70.39
56400;BME280;42298;53.638;9.876;2023-06-26T11:03:41;101056.03;;;26.47;67.86
56400;BME280;42298;53.638;9.876;2023-06-26T11:06:11;101066.00;;;26.76;66.15
56400;BME280;42298;53.638;9.876;2023-06-26T11:08:52;101058.69;;;26.86;64.82
56400;BME280;42298;53.638;9.876;2023-06-26T11:11:21;101082.78;;;27.08;64.14
56400;BME280;42298;53.638;9.876;2023-06-26T11:13:47;101075.53;;;27.07;63.16
56400;BME280;42298;53.638;9.876;2023-06-26T11:16:14;101069.97;;;26.93;61.03
56400;BME280;42298;53.638;9.876;2023-06-26T11:18:40;101081.97;;;27.11;59.66
56400;BME280;42298;53.638;9.876;2023-06-26T11:21:06;101081.06;;;27.31;59.73
56400;BME280;42298;53.638;9.876;2023-06-26T11:23:32;101083.22;;;27.64;59.09
56400;BME280;42298;53.638;9.876;2023-06-26T11:26:15;101088.59;;;28.00;60.37
56400;BME280;42298;53.638;9.876;2023-06-26T11:28:56;101091.91;;;28.28;56.74
56400;BME280;42298;53.638;9.876;2023-06-26T11:31:29;101096.34;;;28.29;56.76
56400;BME280;42298;53.638;9.876;2023-06-26T11:34:02;101100.53;;;28.18;55.52
56400;BME280;42298;53.638;9.876;2023-06-26T11:36:29;101120.03;;;28.12;54.78
56400;BME280;42298;53.638;9.876;2023-06-26T11:39:00;101127.63;;;27.71;54.38
56400;BME280;42298;53.638;9.876;2023-06-26T11:41:28;101109.16;;;27.56;55.60
56400;BME280;42298;53.638;9.876;2023-06-26T11:43:54;101127.38;;;27.51;54.89
56400;BME280;42298;53.638;9.876;2023-06-26T11:46:20;101128.94;;;27.59;55.64
56400;BME280;42298;53.638;9.876;2023-06-26T11:48:46;101132.25;;;27.51;54.70
56400;BME280;42298;53.638;9.876;2023-06-26T11:51:15;101135.16;;;27.40;53.43
56400;BME280;42298;53.638;9.876;2023-06-26T11:53:41;101157.19;;;27.01;52.84
56400;BME280;42298;53.638;9.876;2023-06-26T11:56:11;101144.22;;;27.00;54.90
56400;BME280;42298;53.638;9.876;2023-06-26T11:58:55;101144.16;;;27.14;54.96
56400;BME280;42298;53.638;9.876;2023-06-26T12:01:21;101149.81;;;27.18;54.80
56400;BME280;42298;53.638;9.876;2023-06-26T12:03:48;101165.56;;;27.15;54.81
56400;BME280;42298;53.638;9.876;2023-06-26T12:06:14;101152.63;;;27.28;54.50
56400;BME280;42298;53.638;9.876;2023-06-26T12:08:40;101154.50;;;27.49;54.81
56400;BME280;42298;53.638;9.876;2023-06-26T12:11:05;101171.81;;;27.61;53.24
56400;BME280;42298;53.638;9.876;2023-06-26T12:13:31;101151.25;;;27.54;53.10
56400;BME280;42298;53.638;9.876;2023-06-26T12:15:57;101151.13;;;27.68;54.35
56400;BME280;42298;53.638;9.876;2023-06-26T12:18:22;101146.97;;;27.79;51.60
56400;BME280;42298;53.638;9.876;2023-06-26T12:20:51;101153.69;;;28.03;50.32
56400;BME280;42298;53.638;9.876;2023-06-26T12:23:16;101150.97;;;27.89;49.94
56400;BME280;42298;53.638;9.876;2023-06-26T12:25:42;101172.56;;;27.65;49.19
56400;BME280;42298;53.638;9.876;2023-06-26T12:28:17;101163.34;;;27.54;49.91
56400;BME280;42298;53.638;9.876;2023-06-26T12:30:47;101166.22;;;27.47;51.08
56400;BME280;42298;53.638;9.876;2023-06-26T12:33:14;101157.25;;;27.59;50.10
56400;BME280;42298;53.638;9.876;2023-06-26T12:35:39;101172.97;;;27.67;48.71
56400;BME280;42298;53.638;9.876;2023-06-26T12:38:07;101183.34;;;27.84;48.40
56400;BME280;42298;53.638;9.876;2023-06-26T12:40:44;101177.31;;;27.79;46.03
56400;BME280;42298;53.638;9.876;2023-06-26T12:43:11;101171.66;;;27.79;46.52
56400;BME280;42298;53.638;9.876;2023-06-26T12:45:38;101169.59;;;27.83;46.48
56400;BME280;42298;53.638;9.876;2023-06-26T12:48:11;101189.91;;;27.74;45.62
56400;BME280;42298;53.638;9.876;2023-06-26T12:50:43;101194.44;;;27.61;46.39
56400;BME280;42298;53.638;9.876;2023-06-26T12:53:10;101189.13;;;27.67;45.75
56400;BME280;42298;53.638;9.876;2023-06-26T12:55:36;101185.16;;;27.57;45.38
56400;BME280;42298;53.638;9.876;2023-06-26T12:58:01;101189.28;;;27.42;44.78